createdAt,value
2023-01-28T00:01:32.357Z,16.40
2023-01-28T00:04:05.033Z,16.20
2023-01-28T00:06:35.939Z,16.70
2023-01-28T00:09:05.949Z,15.90
2023-01-28T00:11:37.036Z,16.50
2023-01-28T00:14:09.212Z,15.60
2023-01-28T00:16:37.954Z,15.80
2023-01-28T00:19:07.647Z,16.90
2023-01-28T00:21:36.337Z,16.70
2023-01-28T00:24:07.213Z,15.90
2023-01-28T00:26:37.378Z,15.80
2023-01-28T00:29:09.060Z,15.60
2023-01-28T00:31:38.224Z,15.40
2023-01-28T00:34:11.573Z,15.90
2023-01-28T00:36:45.350Z,16.60
2023-01-28T00:39:16.969Z,15.40
2023-01-28T00:41:45.541Z,14.80
2023-01-28T00:44:17.511Z,15.00
2023-01-28T00:46:47.645Z,15.20
2023-01-28T00:49:17.934Z,16.70
2023-01-28T00:51:46.479Z,16.40
2023-01-28T00:54:17.231Z,15.40
2023-01-28T00:56:45.966Z,16.40
2023-01-28T00:59:14.628Z,15.20
2023-01-28T01:01:43.320Z,14.90
2023-01-28T01:04:26.833Z,15.60
2023-01-28T01:06:55.625Z,15.00
2023-01-28T01:09:24.762Z,14.40
2023-01-28T01:11:53.344Z,13.90
2023-01-28T01:14:22.126Z,12.40
2023-01-28T01:16:50.675Z,11.00
2023-01-28T01:19:20.877Z,11.90
2023-01-28T01:21:50.963Z,11.80
2023-01-28T01:24:19.666Z,9.00
2023-01-28T01:26:52.475Z,8.10
2023-01-28T01:29:21.043Z,8.00
2023-01-28T01:31:50.097Z,8.80
2023-01-28T01:34:19.728Z,8.80
2023-01-28T01:36:50.803Z,9.10
2023-01-28T01:39:19.890Z,7.70
2023-01-28T01:41:48.678Z,7.10
2023-01-28T01:44:55.141Z,6.90
2023-01-28T01:47:39.400Z,7.70
2023-01-28T01:50:39.969Z,7.00
2023-01-28T01:53:16.285Z,7.50
2023-01-28T01:55:49.010Z,7.10
2023-01-28T01:58:24.036Z,7.20
2023-01-28T02:00:52.732Z,6.80
2023-01-28T02:03:31.335Z,7.30
2023-01-28T02:06:00.161Z,7.90
2023-01-28T02:08:28.959Z,8.30
2023-01-28T02:11:07.027Z,7.50
2023-01-28T02:13:43.976Z,8.10
2023-01-28T02:16:15.845Z,7.80
2023-01-28T02:18:44.577Z,8.20
2023-01-28T02:21:51.597Z,8.30
2023-01-28T02:24:57.327Z,7.40
2023-01-28T02:27:47.740Z,7.90
2023-01-28T02:30:31.457Z,8.00
2023-01-28T02:33:07.152Z,8.70
2023-01-28T02:35:52.616Z,7.40
2023-01-28T02:38:33.855Z,7.50
2023-01-28T02:41:10.046Z,6.90
2023-01-28T02:43:47.088Z,7.90
2023-01-28T02:46:41.890Z,8.50
2023-01-28T02:49:21.103Z,7.90
2023-01-28T02:51:58.708Z,7.80
2023-01-28T02:54:47.216Z,7.80
2023-01-28T02:57:47.741Z,7.40
2023-01-28T03:00:33.329Z,7.70
2023-01-28T03:03:14.196Z,7.90
2023-01-28T03:06:07.210Z,8.10
2023-01-28T03:09:20.484Z,8.10
2023-01-28T03:12:35.413Z,8.90
2023-01-28T03:15:32.702Z,9.50
2023-01-28T03:18:24.954Z,8.90
2023-01-28T03:21:27.093Z,7.60
2023-01-28T03:24:30.855Z,7.50
2023-01-28T03:27:28.837Z,6.90
2023-01-28T03:30:28.431Z,7.40
2023-01-28T03:33:18.161Z,7.50
2023-01-28T03:36:06.781Z,7.70
2023-01-28T03:38:42.235Z,8.30
2023-01-28T03:41:12.743Z,7.80
2023-01-28T03:43:41.962Z,8.10
2023-01-28T03:46:16.503Z,8.00
2023-01-28T03:48:46.825Z,8.00
2023-01-28T03:51:23.091Z,9.10
2023-01-28T03:53:51.782Z,8.60
2023-01-28T03:56:25.030Z,7.90
2023-01-28T03:59:04.265Z,7.40
2023-01-28T04:01:33.168Z,7.40
2023-01-28T04:04:01.988Z,7.90
2023-01-28T04:06:31.276Z,8.50
2023-01-28T04:09:11.897Z,9.10
2023-01-28T04:11:44.069Z,8.50
2023-01-28T04:14:20.201Z,8.80
2023-01-28T04:17:11.769Z,8.40
2023-01-28T04:20:00.376Z,8.80
2023-01-28T04:22:29.413Z,8.40
2023-01-28T04:25:01.541Z,7.80
2023-01-28T04:27:36.021Z,8.40
2023-01-28T04:30:14.349Z,8.40
2023-01-28T04:32:50.781Z,8.10
2023-01-28T04:38:37.013Z,8.80
2023-01-28T04:41:29.751Z,8.90
2023-01-28T04:44:08.057Z,7.80
2023-01-28T04:46:56.403Z,8.20
2023-01-28T04:49:44.417Z,8.30
2023-01-28T04:52:28.199Z,8.40
2023-01-28T04:55:15.301Z,9.10
2023-01-28T04:57:44.266Z,8.50
2023-01-28T05:00:13.202Z,8.70
2023-01-28T05:02:41.758Z,8.90
2023-01-28T05:05:13.680Z,9.20
2023-01-28T05:08:03.712Z,9.50
2023-01-28T05:10:32.528Z,8.70
2023-01-28T05:13:02.423Z,7.80
2023-01-28T05:15:33.817Z,7.90
2023-01-28T05:18:02.505Z,7.70
2023-01-28T05:20:36.298Z,8.50
2023-01-28T05:23:06.281Z,8.50
2023-01-28T05:25:50.784Z,9.30
2023-01-28T05:28:22.206Z,7.70
2023-01-28T05:30:50.983Z,9.50
2023-01-28T05:33:20.556Z,9.00
2023-01-28T05:35:49.901Z,9.50
2023-01-28T05:38:21.921Z,9.20
2023-01-28T05:40:50.794Z,9.40
2023-01-28T05:43:20.257Z,9.40
2023-01-28T05:46:09.200Z,8.50
2023-01-28T05:48:56.830Z,9.20
2023-01-28T05:51:44.452Z,9.20
2023-01-28T05:54:16.315Z,9.50
2023-01-28T05:56:47.735Z,10.20
2023-01-28T05:59:16.434Z,9.40
2023-01-28T06:01:46.217Z,9.50
2023-01-28T06:04:20.399Z,10.80
2023-01-28T06:06:49.172Z,11.40
2023-01-28T06:09:18.088Z,12.20
2023-01-28T06:11:46.852Z,13.00
2023-01-28T06:14:15.721Z,13.00
2023-01-28T06:20:21.113Z,13.40
2023-01-28T06:22:52.848Z,13.70
2023-01-28T06:25:22.171Z,13.20
2023-01-28T06:27:50.777Z,13.50
2023-01-28T06:30:20.249Z,13.60
2023-01-28T06:32:55.252Z,13.80
2023-01-28T06:35:24.232Z,12.70
2023-01-28T06:37:53.857Z,13.50
2023-01-28T06:40:23.286Z,11.90
2023-01-28T06:42:54.778Z,11.00
2023-01-28T06:45:26.408Z,10.80
2023-01-28T06:47:56.938Z,10.00
2023-01-28T06:50:31.452Z,9.40
2023-01-28T06:53:06.254Z,9.20
2023-01-28T06:55:37.030Z,8.60
2023-01-28T06:58:05.673Z,9.60
2023-01-28T07:00:34.682Z,8.30
2023-01-28T07:03:10.440Z,8.00
2023-01-28T07:05:40.000Z,8.10
2023-01-28T07:08:09.480Z,8.20
2023-01-28T07:10:41.302Z,8.70
2023-01-28T07:13:13.018Z,8.10
2023-01-28T07:15:42.800Z,8.80
2023-01-28T07:18:12.566Z,9.00
2023-01-28T07:20:41.278Z,9.50
2023-01-28T07:23:10.925Z,10.20
2023-01-28T07:25:39.659Z,10.20
2023-01-28T07:28:13.263Z,11.70
2023-01-28T07:30:42.033Z,10.90
2023-01-28T07:33:12.087Z,9.70
2023-01-28T07:35:40.745Z,10.20
2023-01-28T07:38:10.624Z,9.90
2023-01-28T07:40:39.576Z,9.80
2023-01-28T07:43:09.182Z,10.20
2023-01-28T07:45:41.652Z,11.30
2023-01-28T07:48:14.745Z,12.00
2023-01-28T07:50:43.544Z,11.20
2023-01-28T07:53:19.858Z,12.00
2023-01-28T07:55:48.536Z,11.70
2023-01-28T07:58:18.109Z,12.00
2023-01-28T08:00:46.867Z,13.40
2023-01-28T08:03:21.341Z,14.60
2023-01-28T08:05:53.365Z,15.00
2023-01-28T08:08:23.812Z,15.70
2023-01-28T08:10:53.088Z,15.80
2023-01-28T08:13:22.928Z,15.50
2023-01-28T08:15:55.711Z,16.50
2023-01-28T08:18:24.543Z,16.60
2023-01-28T08:20:57.765Z,16.50
2023-01-28T08:23:36.683Z,16.10
2023-01-28T08:26:13.259Z,15.30
2023-01-28T08:28:42.981Z,14.70
2023-01-28T08:31:12.123Z,16.20
2023-01-28T08:33:41.604Z,17.10
2023-01-28T08:36:12.153Z,14.00
2023-01-28T08:38:40.759Z,14.30
2023-01-28T08:41:09.939Z,13.50
2023-01-28T08:43:43.997Z,14.20
2023-01-28T08:46:13.188Z,13.70
2023-01-28T08:48:42.806Z,13.60
2023-01-28T08:51:11.828Z,16.30
2023-01-28T08:53:41.840Z,17.60
2023-01-28T08:56:10.717Z,13.70
2023-01-28T08:58:41.889Z,14.10
2023-01-28T09:01:10.581Z,13.90
2023-01-28T09:03:40.272Z,14.50
2023-01-28T09:06:09.509Z,14.30
2023-01-28T09:08:38.182Z,14.00
2023-01-28T09:11:07.184Z,16.40
2023-01-28T09:13:35.847Z,11.30
2023-01-28T09:16:08.089Z,15.40
2023-01-28T09:18:36.717Z,15.60
2023-01-28T09:21:07.407Z,17.50
2023-01-28T09:23:40.096Z,14.60
2023-01-28T09:26:09.573Z,13.10
2023-01-28T09:28:40.431Z,12.30
2023-01-28T09:31:12.672Z,13.20
2023-01-28T09:33:42.920Z,13.00
2023-01-28T09:36:12.346Z,11.00
2023-01-28T09:38:43.135Z,15.20
2023-01-28T09:41:28.467Z,11.90
2023-01-28T09:44:04.996Z,12.10
2023-01-28T09:46:37.607Z,10.60
2023-01-28T09:49:19.977Z,11.70
2023-01-28T09:51:54.924Z,13.30
2023-01-28T09:54:46.323Z,12.50
2023-01-28T09:57:46.146Z,13.40
2023-01-28T10:00:20.289Z,11.20
2023-01-28T10:02:51.990Z,12.80
2023-01-28T10:05:53.473Z,12.00
2023-01-28T10:09:06.291Z,10.50
2023-01-28T10:11:44.451Z,11.50
2023-01-28T10:14:54.814Z,12.80
2023-01-28T10:17:36.480Z,11.30
2023-01-28T10:20:29.087Z,12.00
2023-01-28T10:23:36.901Z,11.90
2023-01-28T10:26:32.616Z,12.60
2023-01-28T10:29:12.257Z,10.70
2023-01-28T10:31:52.003Z,11.50
2023-01-28T10:34:22.688Z,13.00
2023-01-28T10:36:52.285Z,11.80
2023-01-28T10:39:25.190Z,12.30
2023-01-28T10:44:38.583Z,8.90
2023-01-28T10:47:15.869Z,8.60
2023-01-28T10:49:49.838Z,11.10
2023-01-28T10:52:18.814Z,11.00
2023-01-28T10:54:48.168Z,11.20
2023-01-28T10:57:19.475Z,11.60
2023-01-28T10:59:51.181Z,8.90
2023-01-28T11:02:32.822Z,9.10
2023-01-28T11:05:06.168Z,10.40
2023-01-28T11:07:35.153Z,12.40
2023-01-28T11:10:25.836Z,16.30
2023-01-28T11:12:59.583Z,15.80
2023-01-28T11:15:29.488Z,14.10
2023-01-28T11:18:06.455Z,12.70
2023-01-28T11:20:43.913Z,11.30
2023-01-28T11:23:27.525Z,11.10
2023-01-28T11:26:18.332Z,12.70
2023-01-28T11:28:48.116Z,11.00
2023-01-28T11:31:21.011Z,10.90
2023-01-28T11:36:29.427Z,14.10
2023-01-28T11:39:02.069Z,10.60
2023-01-28T11:44:22.177Z,17.20
2023-01-28T11:47:09.980Z,16.30
2023-01-28T11:50:03.218Z,19.30
2023-01-28T11:53:04.381Z,29.50
2023-01-28T11:55:58.730Z,17.40
2023-01-28T11:58:48.756Z,15.60
2023-01-28T12:01:35.258Z,11.10
2023-01-28T12:04:39.760Z,10.10
2023-01-28T12:07:28.286Z,17.10
2023-01-28T12:10:23.979Z,26.00
2023-01-28T12:13:07.978Z,14.70
2023-01-28T12:15:57.683Z,19.40
2023-01-28T12:18:44.932Z,10.40
2023-01-28T12:21:51.501Z,10.50
2023-01-28T12:24:38.742Z,13.70
2023-01-28T12:27:47.573Z,10.30
2023-01-28T12:30:33.584Z,10.60
2023-01-28T12:33:17.726Z,12.10
2023-01-28T12:36:19.960Z,11.50
2023-01-28T12:39:04.092Z,10.60
2023-01-28T12:41:54.822Z,9.70
2023-01-28T12:44:35.863Z,9.40
2023-01-28T12:47:11.896Z,8.40
2023-01-28T12:49:51.275Z,7.90
2023-01-28T12:52:26.545Z,8.60
2023-01-28T12:55:13.251Z,8.80
2023-01-28T12:57:42.351Z,8.50
2023-01-28T13:00:45.523Z,8.60
2023-01-28T13:03:41.536Z,8.50
2023-01-28T13:06:20.157Z,8.90
2023-01-28T13:08:49.729Z,8.60
2023-01-28T13:11:20.277Z,8.60
2023-01-28T13:13:49.465Z,7.90
2023-01-28T13:16:19.421Z,7.70
2023-01-28T13:18:50.012Z,8.70
2023-01-28T13:21:25.880Z,8.40
2023-01-28T13:24:22.194Z,9.40
2023-01-28T13:26:54.820Z,10.00
2023-01-28T13:29:32.870Z,9.30
2023-01-28T13:32:04.222Z,9.20
2023-01-28T13:34:34.109Z,9.40
2023-01-28T13:37:29.440Z,8.70
2023-01-28T13:40:25.085Z,8.70
2023-01-28T13:43:06.363Z,8.70
2023-01-28T13:45:35.279Z,9.50
2023-01-28T13:48:56.487Z,9.50
2023-01-28T13:51:33.278Z,8.90
2023-01-28T13:54:23.946Z,11.00
2023-01-28T13:57:01.646Z,10.40
2023-01-28T14:00:21.144Z,10.40
2023-01-28T14:03:13.028Z,10.30
2023-01-28T14:06:05.980Z,11.20
2023-01-28T14:09:07.022Z,11.50
2023-01-28T14:12:20.089Z,12.70
2023-01-28T14:15:12.340Z,11.80
2023-01-28T14:17:49.418Z,11.50
2023-01-28T14:20:29.427Z,11.60
2023-01-28T14:23:16.444Z,11.20
2023-01-28T14:25:48.014Z,12.10
2023-01-28T14:28:42.273Z,10.70
2023-01-28T14:31:32.666Z,11.20
2023-01-28T14:34:22.857Z,11.60
2023-01-28T14:36:53.888Z,11.60
2023-01-28T14:39:29.222Z,11.50
2023-01-28T14:42:01.732Z,10.50
2023-01-28T14:44:37.121Z,11.70
2023-01-28T14:47:47.117Z,11.00
2023-01-28T14:50:24.918Z,12.30
2023-01-28T14:53:24.553Z,11.90
2023-01-28T14:56:15.233Z,10.80
2023-01-28T14:58:53.848Z,9.70
2023-01-28T15:01:31.500Z,10.20
2023-01-28T15:04:00.353Z,9.60
2023-01-28T15:06:36.122Z,10.70
2023-01-28T15:09:12.786Z,9.10
2023-01-28T15:11:45.843Z,9.80
2023-01-28T15:14:48.702Z,9.70
2023-01-28T15:17:26.934Z,8.60
2023-01-28T15:19:57.469Z,8.70
2023-01-28T15:22:32.914Z,8.80
2023-01-28T15:25:01.527Z,9.50
2023-01-28T15:27:32.251Z,8.70
2023-01-28T15:30:02.722Z,8.50
2023-01-28T15:32:31.809Z,8.30
2023-01-28T15:35:01.499Z,8.90
2023-01-28T15:37:30.072Z,9.30
2023-01-28T15:40:06.337Z,8.90
2023-01-28T15:42:38.756Z,8.50
2023-01-28T15:45:16.890Z,9.00
2023-01-28T15:47:47.021Z,8.70
2023-01-28T15:50:25.435Z,9.70
2023-01-28T15:53:01.793Z,10.10
2023-01-28T15:55:41.437Z,12.40
2023-01-28T15:58:41.853Z,11.60
2023-01-28T16:01:10.609Z,11.80
2023-01-28T16:03:43.370Z,11.40
2023-01-28T16:06:20.948Z,11.10
2023-01-28T16:09:01.379Z,9.80
2023-01-28T16:11:41.564Z,10.10
2023-01-28T16:14:25.818Z,11.70
2023-01-28T16:16:56.530Z,12.10
2023-01-28T16:19:41.751Z,13.80
2023-01-28T16:22:20.695Z,16.00
2023-01-28T16:24:53.739Z,16.80
2023-01-28T16:27:24.973Z,16.70
2023-01-28T16:29:54.047Z,15.70
2023-01-28T16:32:33.063Z,16.50
2023-01-28T16:35:02.681Z,15.00
2023-01-28T16:37:31.299Z,16.00
2023-01-28T16:40:02.195Z,16.00
2023-01-28T16:42:32.574Z,12.90
2023-01-28T16:45:01.176Z,14.20
2023-01-28T16:47:29.917Z,13.20
2023-01-28T16:50:00.752Z,12.90
2023-01-28T16:52:29.945Z,12.50
2023-01-28T16:54:58.697Z,13.10
2023-01-28T16:57:27.857Z,13.40
2023-01-28T16:59:56.987Z,14.70
2023-01-28T17:02:25.563Z,14.60
2023-01-28T17:04:54.304Z,15.80
2023-01-28T17:07:22.848Z,16.50
2023-01-28T17:09:51.411Z,14.80
2023-01-28T17:12:20.140Z,15.70
2023-01-28T17:14:48.876Z,14.60
2023-01-28T17:17:17.520Z,14.70
2023-01-28T17:19:46.438Z,14.90
2023-01-28T17:22:15.108Z,15.80
2023-01-28T17:24:46.714Z,14.60
2023-01-28T17:27:16.102Z,14.00
2023-01-28T17:29:44.602Z,21.20
2023-01-28T17:32:15.992Z,15.00
2023-01-28T17:34:44.595Z,14.80
2023-01-28T17:37:13.436Z,16.20
2023-01-28T17:39:42.213Z,16.20
2023-01-28T17:42:10.941Z,14.80
2023-01-28T17:44:43.339Z,14.90
2023-01-28T17:47:11.912Z,14.10
2023-01-28T17:49:40.643Z,15.00
2023-01-28T17:52:09.195Z,14.30
2023-01-28T17:54:41.931Z,13.70
2023-01-28T17:57:10.462Z,12.90
2023-01-28T17:59:38.982Z,13.30
2023-01-28T18:02:11.107Z,13.80
2023-01-28T18:04:43.533Z,14.20
2023-01-28T18:07:12.178Z,15.10
2023-01-28T18:09:42.570Z,14.50
2023-01-28T18:12:13.049Z,14.80
2023-01-28T18:14:44.737Z,14.10
2023-01-28T18:17:14.318Z,14.80
2023-01-28T18:19:42.889Z,15.10
2023-01-28T18:22:11.350Z,16.50
2023-01-28T18:24:39.986Z,15.80
2023-01-28T18:27:09.847Z,16.30
2023-01-28T18:29:41.598Z,16.20
2023-01-28T18:32:14.708Z,16.70
2023-01-28T18:34:43.307Z,17.40
2023-01-28T18:37:11.916Z,19.70
2023-01-28T18:39:43.412Z,17.70
2023-01-28T18:42:13.498Z,17.60
2023-01-28T18:44:42.106Z,18.40
2023-01-28T18:47:13.603Z,18.70
2023-01-28T18:49:42.688Z,18.90
2023-01-28T18:52:11.327Z,19.80
2023-01-28T18:54:41.973Z,20.80
2023-01-28T18:57:10.438Z,19.20
2023-01-28T18:59:38.861Z,20.30
2023-01-28T19:02:07.393Z,21.30
2023-01-28T19:04:35.885Z,20.70
2023-01-28T19:07:07.140Z,21.50
2023-01-28T19:09:36.547Z,20.40
2023-01-28T19:12:05.380Z,19.50
2023-01-28T19:14:34.745Z,20.10
2023-01-28T19:17:03.239Z,20.50
2023-01-28T19:19:31.788Z,20.00
2023-01-28T19:22:00.404Z,21.10
2023-01-28T19:24:29.040Z,19.00
2023-01-28T19:26:57.737Z,18.70
2023-01-28T19:29:28.683Z,18.80
2023-01-28T19:31:57.823Z,18.70
2023-01-28T19:34:27.336Z,18.40
2023-01-28T19:36:55.845Z,20.20
2023-01-28T19:39:24.474Z,18.40
2023-01-28T19:41:53.100Z,18.60
2023-01-28T19:44:21.740Z,18.50
2023-01-28T19:46:50.275Z,17.90
2023-01-28T19:49:18.775Z,17.80
2023-01-28T19:51:48.685Z,20.30
2023-01-28T19:54:17.363Z,18.60
2023-01-28T19:56:46.564Z,18.00
2023-01-28T19:59:15.326Z,17.90
2023-01-28T20:01:43.941Z,17.60
2023-01-28T20:04:12.817Z,16.30
2023-01-28T20:06:41.582Z,16.20
2023-01-28T20:09:18.011Z,15.80
2023-01-28T20:11:46.809Z,14.50
2023-01-28T20:14:16.901Z,15.70
2023-01-28T20:16:47.841Z,13.70
2023-01-28T20:19:19.497Z,14.30
2023-01-28T20:21:51.695Z,14.90
2023-01-28T20:24:22.916Z,14.50
2023-01-28T20:26:51.478Z,14.10
2023-01-28T20:29:22.428Z,15.10
2023-01-28T20:32:09.124Z,15.30
2023-01-28T20:34:39.694Z,15.30
2023-01-28T20:37:10.393Z,15.10
2023-01-28T20:39:39.222Z,14.50
2023-01-28T20:42:13.378Z,14.70
2023-01-28T20:44:42.020Z,15.60
2023-01-28T20:47:10.828Z,15.90
2023-01-28T20:49:39.570Z,14.50
2023-01-28T20:52:08.226Z,14.30
2023-01-28T20:54:36.836Z,13.50
2023-01-28T20:57:10.226Z,15.00
2023-01-28T20:59:38.786Z,14.20
2023-01-28T21:02:10.523Z,13.70
2023-01-28T21:04:41.347Z,13.10
2023-01-28T21:07:12.836Z,13.60
2023-01-28T21:09:41.649Z,13.70
2023-01-28T21:12:10.241Z,14.40
2023-01-28T21:14:39.355Z,13.80
2023-01-28T21:17:08.052Z,12.60
2023-01-28T21:19:38.934Z,13.70
2023-01-28T21:22:08.174Z,15.40
2023-01-28T21:24:36.935Z,15.90
2023-01-28T21:27:06.662Z,15.20
2023-01-28T21:29:35.269Z,14.50
2023-01-28T21:32:06.186Z,15.40
2023-01-28T21:34:36.362Z,15.30
2023-01-28T21:37:13.227Z,15.90
2023-01-28T21:39:47.647Z,16.30
2023-01-28T21:42:20.583Z,14.90
2023-01-28T21:45:00.592Z,13.80
2023-01-28T21:47:29.378Z,14.30
2023-01-28T21:49:58.048Z,15.50
2023-01-28T21:52:26.657Z,16.00
2023-01-28T21:54:55.315Z,15.90
2023-01-28T21:57:25.661Z,16.80
2023-01-28T21:59:54.262Z,17.00
2023-01-28T22:04:58.925Z,17.00
2023-01-28T22:07:28.620Z,18.10
2023-01-28T22:09:58.052Z,17.30
2023-01-28T22:12:28.341Z,15.40
2023-01-28T22:14:56.859Z,16.00
2023-01-28T22:17:28.650Z,15.90
2023-01-28T22:19:57.800Z,15.00
2023-01-28T22:22:26.289Z,14.70
2023-01-28T22:25:01.998Z,15.50
2023-01-28T22:27:32.847Z,14.90
2023-01-28T22:30:01.318Z,15.60
2023-01-28T22:32:29.905Z,15.80
2023-01-28T22:35:00.360Z,15.10
2023-01-28T22:37:28.955Z,14.40
2023-01-28T22:39:57.498Z,13.30
2023-01-28T22:42:26.487Z,14.50
2023-01-28T22:44:55.281Z,15.40
2023-01-28T22:47:24.067Z,16.90
2023-01-28T22:49:52.630Z,15.60
2023-01-28T22:52:21.443Z,15.80
2023-01-28T22:54:51.781Z,16.70
2023-01-28T22:57:21.711Z,16.70
2023-01-28T23:00:00.063Z,18.00
2023-01-28T23:02:31.469Z,17.50
2023-01-28T23:05:00.244Z,17.50
2023-01-28T23:07:28.774Z,16.70
2023-01-28T23:09:57.287Z,15.90
2023-01-28T23:12:25.904Z,16.70
2023-01-28T23:15:13.331Z,16.20
2023-01-28T23:18:00.625Z,17.30
2023-01-28T23:20:47.918Z,16.90
2023-01-28T23:23:36.410Z,18.20
2023-01-28T23:26:13.876Z,18.50
2023-01-28T23:28:42.504Z,17.90
2023-01-28T23:31:11.124Z,18.90
2023-01-28T23:33:39.814Z,20.10
2023-01-28T23:36:08.832Z,19.00
2023-01-28T23:38:37.693Z,19.50
2023-01-28T23:41:06.283Z,17.60
2023-01-28T23:43:36.430Z,16.40
2023-01-28T23:46:08.257Z,17.20
2023-01-28T23:48:36.804Z,16.10
2023-01-28T23:51:07.143Z,16.30
2023-01-28T23:53:36.145Z,16.40
2023-01-28T23:56:08.322Z,17.10
2023-01-28T23:58:43.094Z,16.60
